Time;durP1;ratioP1;P1;durP2;ratioP2;P2;SDS_P1;SDS_P2;PMS_P1;PMS_P2;Temp;Humidity;BMP_temperature;BMP_pressure;BME280_temperature;BME280_humidity;BME280_pressure;Samples;Min_cycle;Max_cycle;Signal;HPM_P1;HPM_P2
2022/12/04 00:00:26;;;;;;;46.97;23.63;;;;;;;;;;5016023;28;20428;-69
2022/12/04 00:02:52;;;;;;;44.72;23.90;;;;;;;;;;5033492;28;20417;-69
2022/12/04 00:05:18;;;;;;;45.92;25.13;;;;;;;;;;5033716;28;20413;-69
2022/12/04 00:07:44;;;;;;;45.17;23.10;;;;;;;;;;5043874;28;20452;-69
2022/12/04 00:10:10;;;;;;;43.17;23.27;;;;;;;;;;5051133;28;20427;-69
2022/12/04 00:12:36;;;;;;;41.60;22.25;;;;;;;;;;5053046;28;20749;-69
2022/12/04 00:15:03;;;;;;;42.95;22.90;;;;;;;;;;5070749;28;20810;-69
2022/12/04 00:17:29;;;;;;;42.15;23.05;;;;;;;;;;5052794;28;20429;-69
2022/12/04 00:19:55;;;;;;;40.05;22.63;;;;;;;;;;5050232;28;20614;-69
2022/12/04 00:22:23;;;;;;;38.15;21.70;;;;;;;;;;5052078;28;20992;-69
2022/12/04 00:24:49;;;;;;;42.65;22.30;;;;;;;;;;5035527;28;20515;-69
2022/12/04 00:27:15;;;;;;;38.85;22.40;;;;;;;;;;5050665;28;20945;-70
2022/12/04 00:29:41;;;;;;;41.30;21.27;;;;;;;;;;5049177;28;20451;-69
2022/12/04 00:32:07;;;;;;;41.30;22.00;;;;;;;;;;5053324;28;20408;-69
2022/12/04 00:34:33;;;;;;;41.33;22.33;;;;;;;;;;5050035;28;20468;-69
2022/12/04 00:36:59;;;;;;;39.67;21.50;;;;;;;;;;5035102;28;20432;-69
2022/12/04 00:39:25;;;;;;;39.58;22.08;;;;;;;;;;5030197;28;20419;-70
2022/12/04 00:41:51;;;;;;;39.58;22.88;;;;;;;;;;5047252;28;20545;-70
2022/12/04 00:44:17;;;;;;;40.45;23.13;;;;;;;;;;5032582;28;20421;-69
2022/12/04 00:46:43;;;;;;;42.10;23.23;;;;;;;;;;5018934;28;20875;-69
2022/12/04 00:49:09;;;;;;;39.05;22.33;;;;;;;;;;5065541;28;20766;-70
2022/12/04 00:51:35;;;;;;;41.78;22.23;;;;;;;;;;5031313;28;20424;-70
2022/12/04 00:54:01;;;;;;;40.85;21.85;;;;;;;;;;5052416;28;20752;-70
2022/12/04 00:56:28;;;;;;;43.20;23.08;;;;;;;;;;5051698;28;20568;-69
2022/12/04 00:58:55;;;;;;;41.40;22.60;;;;;;;;;;5068473;28;20485;-70
2022/12/04 01:01:22;;;;;;;43.42;22.60;;;;;;;;;;5050606;28;20430;-70
2022/12/04 01:03:48;;;;;;;43.42;23.23;;;;;;;;;;5035145;28;20408;-69
2022/12/04 01:06:19;;;;;;;44.27;23.13;;;;;;;;;;5052013;28;20818;-70
2022/12/04 01:08:45;;;;;;;38.50;22.83;;;;;;;;;;5032400;28;20659;-69
2022/12/04 01:11:11;;;;;;;41.92;22.92;;;;;;;;;;5035139;28;20431;-70
2022/12/04 01:13:37;;;;;;;43.67;23.60;;;;;;;;;;5042384;28;20453;-69
2022/12/04 01:16:03;;;;;;;44.17;22.85;;;;;;;;;;5035232;28;20470;-70
2022/12/04 01:18:29;;;;;;;43.13;23.10;;;;;;;;;;5043361;28;20425;-69
2022/12/04 01:20:55;;;;;;;45.00;23.50;;;;;;;;;;5052484;28;20511;-70
2022/12/04 01:23:21;;;;;;;43.95;25.08;;;;;;;;;;5053659;28;20423;-69
2022/12/04 01:25:51;;;;;;;42.25;22.38;;;;;;;;;;5038084;28;20414;-70
2022/12/04 01:28:17;;;;;;;46.20;24.33;;;;;;;;;;5053416;28;20419;-69
2022/12/04 01:30:43;;;;;;;44.88;24.23;;;;;;;;;;5038338;28;20428;-69
2022/12/04 01:33:09;;;;;;;45.63;23.42;;;;;;;;;;5056786;28;20422;-69
2022/12/04 01:35:35;;;;;;;42.90;23.27;;;;;;;;;;5055262;28;20475;-69
2022/12/04 01:38:01;;;;;;;45.10;24.33;;;;;;;;;;5052629;28;20434;-69
2022/12/04 01:40:27;;;;;;;43.03;22.77;;;;;;;;;;5033762;28;20426;-69
2022/12/04 01:42:53;;;;;;;42.35;22.67;;;;;;;;;;5013178;28;20425;-70
2022/12/04 01:45:38;;;;;;;45.00;23.85;;;;;;;;;;4997133;28;20409;-70
2022/12/04 01:48:09;;;;;;;46.83;24.38;;;;;;;;;;5018185;28;20431;-70
2022/12/04 01:50:36;;;;;;;45.25;24.30;;;;;;;;;;5017904;28;20427;-69
2022/12/04 01:53:02;;;;;;;46.22;24.55;;;;;;;;;;4980821;28;20986;-68
2022/12/04 01:55:29;;;;;;;45.92;24.98;;;;;;;;;;5029361;28;20474;-68
2022/12/04 01:57:56;;;;;;;43.78;24.48;;;;;;;;;;5007854;28;20418;-69
2022/12/04 02:00:23;;;;;;;46.37;24.83;;;;;;;;;;5031132;28;20423;-68
2022/12/04 02:02:49;;;;;;;44.88;24.73;;;;;;;;;;5029925;28;20438;-69
2022/12/04 02:05:19;;;;;;;43.20;24.92;;;;;;;;;;5030390;28;20435;-69
2022/12/04 02:07:47;;;;;;;45.20;25.20;;;;;;;;;;5030815;28;20449;-69
2022/12/04 02:10:13;;;;;;;44.80;25.23;;;;;;;;;;5031319;28;20423;-69
2022/12/04 02:12:39;;;;;;;49.65;26.45;;;;;;;;;;5031783;28;20481;-69
2022/12/04 02:15:08;;;;;;;44.58;25.33;;;;;;;;;;5031305;28;20427;-68
2022/12/04 02:17:41;;;;;;;45.47;26.50;;;;;;;;;;5030404;28;20477;-69
2022/12/04 02:20:13;;;;;;;47.92;26.38;;;;;;;;;;5025369;28;20814;-69
2022/12/04 02:22:45;;;;;;;47.83;25.55;;;;;;;;;;5012391;28;20415;-69
2022/12/04 02:25:17;;;;;;;46.58;25.55;;;;;;;;;;5015167;28;20418;-69
2022/12/04 02:28:04;;;;;;;47.00;26.40;;;;;;;;;;5025006;28;20430;-69
2022/12/04 02:30:31;;;;;;;47.42;26.10;;;;;;;;;;5023478;28;20782;-69
2022/12/04 02:33:03;;;;;;;48.13;26.30;;;;;;;;;;5031156;28;20965;-70
2022/12/04 02:35:55;;;;;;;50.72;27.73;;;;;;;;;;5031276;28;20427;-70
2022/12/04 02:38:45;;;;;;;50.88;27.02;;;;;;;;;;5004796;28;21080;-69
2022/12/04 02:41:11;;;;;;;50.20;27.67;;;;;;;;;;5017788;28;20488;-69
2022/12/04 02:43:48;;;;;;;51.22;27.33;;;;;;;;;;5017936;28;20517;-69
2022/12/04 02:46:18;;;;;;;50.95;28.23;;;;;;;;;;5025375;28;20499;-68
2022/12/04 02:48:46;;;;;;;50.90;28.23;;;;;;;;;;5024734;28;20541;-69
2022/12/04 02:51:16;;;;;;;53.38;28.65;;;;;;;;;;5011437;28;20834;-69
2022/12/04 02:53:45;;;;;;;53.72;29.23;;;;;;;;;;5017253;28;20423;-69
2022/12/04 02:56:12;;;;;;;53.35;28.42;;;;;;;;;;5031465;28;20410;-69
2022/12/04 02:58:42;;;;;;;51.78;28.70;;;;;;;;;;5030481;28;20798;-69
2022/12/04 03:01:19;;;;;;;53.15;29.00;;;;;;;;;;5030477;28;20930;-69
2022/12/04 03:03:52;;;;;;;54.35;28.55;;;;;;;;;;5030605;28;20934;-69
2022/12/04 03:06:19;;;;;;;53.10;29.05;;;;;;;;;;5009581;28;20439;-70
2022/12/04 03:09:05;;;;;;;56.45;30.27;;;;;;;;;;5025201;28;20453;-70
2022/12/04 03:11:32;;;;;;;55.28;28.88;;;;;;;;;;5023614;28;20466;-70
2022/12/04 03:14:07;;;;;;;55.00;28.60;;;;;;;;;;5031693;28;20486;-69
2022/12/04 03:16:37;;;;;;;56.72;30.05;;;;;;;;;;5023973;28;20427;-69
2022/12/04 03:19:06;;;;;;;53.80;29.33;;;;;;;;;;5025126;28;20487;-69
2022/12/04 03:21:34;;;;;;;53.80;28.77;;;;;;;;;;5026715;28;20430;-69
2022/12/04 03:24:07;;;;;;;55.35;29.23;;;;;;;;;;5029042;28;20430;-69
2022/12/04 03:26:37;;;;;;;55.10;28.33;;;;;;;;;;5014976;28;20442;-70
2022/12/04 03:29:09;;;;;;;57.50;30.08;;;;;;;;;;5026513;28;20435;-70
2022/12/04 03:31:47;;;;;;;56.15;29.50;;;;;;;;;;5026008;28;20434;-70
2022/12/04 03:34:15;;;;;;;56.50;29.55;;;;;;;;;;5029471;28;20501;-70
2022/12/04 03:36:46;;;;;;;58.83;31.67;;;;;;;;;;5029688;28;20422;-69
2022/12/04 03:39:22;;;;;;;57.28;30.30;;;;;;;;;;5034262;28;20421;-69
2022/12/04 03:41:54;;;;;;;55.53;29.80;;;;;;;;;;5049796;28;20421;-69
2022/12/04 03:44:26;;;;;;;57.85;30.25;;;;;;;;;;5048000;28;20436;-69
2022/12/04 03:47:03;;;;;;;58.97;31.45;;;;;;;;;;5048920;28;20937;-69
2022/12/04 03:49:29;;;;;;;58.15;30.92;;;;;;;;;;5049636;28;20789;-71
2022/12/04 03:52:00;;;;;;;61.88;32.30;;;;;;;;;;5047277;28;20827;-70
2022/12/04 03:54:31;;;;;;;57.83;30.85;;;;;;;;;;5050878;28;20418;-70
2022/12/04 03:57:02;;;;;;;59.08;32.10;;;;;;;;;;5048833;28;20494;-70
2022/12/04 03:59:31;;;;;;;56.13;31.57;;;;;;;;;;5041395;28;20431;-70
2022/12/04 04:01:59;;;;;;;56.95;30.60;;;;;;;;;;5047612;28;20433;-70
2022/12/04 04:04:30;;;;;;;57.70;32.03;;;;;;;;;;5048559;28;20413;-70
2022/12/04 04:07:04;;;;;;;59.40;32.80;;;;;;;;;;5049595;28;20426;-70
2022/12/04 04:09:34;;;;;;;60.38;32.88;;;;;;;;;;5032998;28;20478;-70
2022/12/04 04:12:06;;;;;;;60.47;33.63;;;;;;;;;;5049260;28;20479;-70
2022/12/04 04:24:13;;;;;;;60.50;33.17;;;;;;;;;;5048887;28;20453;-70
2022/12/04 04:26:16;;;;;;;58.08;30.92;;;;;;;;;;5048350;28;20433;-70
2022/12/04 04:28:42;;;;;;;61.25;31.85;;;;;;;;;;5045105;28;20433;-70
2022/12/04 04:31:24;;;;;;;57.70;30.67;;;;;;;;;;5040231;28;20972;-70
2022/12/04 04:33:53;;;;;;;60.25;31.73;;;;;;;;;;5048263;28;20429;-70
2022/12/04 04:36:24;;;;;;;62.70;32.47;;;;;;;;;;5050037;28;20889;-70
2022/12/04 04:38:59;;;;;;;60.75;31.77;;;;;;;;;;5050066;28;20556;-69
2022/12/04 04:41:46;;;;;;;63.58;32.80;;;;;;;;;;5067139;28;20428;-69
2022/12/04 04:44:21;;;;;;;58.67;32.28;;;;;;;;;;5053661;28;20424;-69
2022/12/04 04:46:50;;;;;;;62.03;33.42;;;;;;;;;;5034881;28;20430;-68
2022/12/04 04:49:17;;;;;;;62.05;33.83;;;;;;;;;;5051025;28;20431;-68
2022/12/04 04:51:44;;;;;;;61.92;34.92;;;;;;;;;;5032792;28;20423;-70
2022/12/04 04:54:12;;;;;;;64.53;33.88;;;;;;;;;;5037865;28;20428;-69
2022/12/04 04:56:39;;;;;;;61.67;32.60;;;;;;;;;;5053830;28;20435;-68
2022/12/04 04:59:05;;;;;;;60.00;32.22;;;;;;;;;;5054755;28;20424;-69
2022/12/04 05:01:31;;;;;;;72.60;38.15;;;;;;;;;;5053308;28;20431;-68
2022/12/04 05:03:58;;;;;;;60.50;33.30;;;;;;;;;;5040648;28;20418;-68
2022/12/04 05:06:24;;;;;;;67.35;37.22;;;;;;;;;;5024101;28;20946;-69
2022/12/04 05:08:50;;;;;;;62.20;32.38;;;;;;;;;;5057060;28;20923;-69
2022/12/04 05:11:16;;;;;;;67.03;35.65;;;;;;;;;;5035949;28;20427;-69
2022/12/04 05:13:42;;;;;;;62.95;34.67;;;;;;;;;;5054179;28;20419;-69
2022/12/04 05:16:10;;;;;;;63.47;33.60;;;;;;;;;;5074737;28;20395;-70
2022/12/04 05:18:36;;;;;;;60.92;33.35;;;;;;;;;;5052221;28;20428;-69
2022/12/04 05:21:06;;;;;;;59.13;32.17;;;;;;;;;;5034386;28;20429;-69
2022/12/04 05:23:32;;;;;;;64.82;34.28;;;;;;;;;;5019003;28;20508;-69
2022/12/04 05:25:59;;;;;;;60.67;33.20;;;;;;;;;;5026818;28;20429;-69
2022/12/04 05:28:26;;;;;;;59.40;31.83;;;;;;;;;;5037031;28;20761;-69
2022/12/04 05:30:59;;;;;;;61.67;32.78;;;;;;;;;;5019860;28;20493;-70
2022/12/04 05:33:25;;;;;;;59.70;31.15;;;;;;;;;;5039559;28;20420;-70
2022/12/04 05:35:58;;;;;;;58.65;31.67;;;;;;;;;;5039168;28;20396;-71
2022/12/04 05:38:24;;;;;;;60.30;32.22;;;;;;;;;;5052447;28;20838;-69
2022/12/04 05:40:51;;;;;;;60.03;32.22;;;;;;;;;;5053667;28;20427;-69
2022/12/04 05:43:17;;;;;;;59.97;31.73;;;;;;;;;;5053773;28;20435;-69
2022/12/04 05:45:43;;;;;;;62.13;32.90;;;;;;;;;;5039836;28;20407;-69
2022/12/04 05:48:09;;;;;;;58.63;31.58;;;;;;;;;;5055731;28;20423;-69
2022/12/04 05:50:35;;;;;;;62.70;34.40;;;;;;;;;;5035727;28;20928;-69
2022/12/04 05:53:01;;;;;;;59.60;31.20;;;;;;;;;;5036451;28;20423;-70
2022/12/04 05:55:27;;;;;;;61.78;34.17;;;;;;;;;;5055194;28;20434;-69
2022/12/04 05:57:53;;;;;;;60.50;31.92;;;;;;;;;;5019151;28;20425;-69
2022/12/04 06:00:19;;;;;;;61.03;33.17;;;;;;;;;;5026765;28;20462;-70
2022/12/04 06:02:45;;;;;;;58.85;32.58;;;;;;;;;;5054911;28;20451;-70
2022/12/04 06:05:11;;;;;;;57.13;31.80;;;;;;;;;;5053686;28;20416;-69
2022/12/04 06:07:37;;;;;;;58.65;32.65;;;;;;;;;;5051988;28;20424;-69
2022/12/04 06:10:04;;;;;;;59.13;33.42;;;;;;;;;;5037728;28;20931;-69
2022/12/04 06:12:30;;;;;;;58.50;32.70;;;;;;;;;;5055051;28;20572;-69
2022/12/04 06:14:56;;;;;;;68.80;38.22;;;;;;;;;;5038457;28;20415;-70
2022/12/04 06:17:22;;;;;;;63.33;33.50;;;;;;;;;;5053751;28;20419;-69
2022/12/04 06:19:48;;;;;;;57.30;30.85;;;;;;;;;;5053239;28;20456;-70
2022/12/04 06:22:14;;;;;;;59.77;31.30;;;;;;;;;;5055028;28;20419;-70
2022/12/04 06:24:40;;;;;;;55.95;30.30;;;;;;;;;;5055968;28;20387;-70
2022/12/04 06:27:06;;;;;;;57.00;30.60;;;;;;;;;;5054901;28;20418;-70
2022/12/04 06:29:32;;;;;;;59.72;30.85;;;;;;;;;;5054232;28;20450;-70
2022/12/04 06:31:59;;;;;;;59.35;32.15;;;;;;;;;;5038213;28;20485;-68
2022/12/04 06:34:25;;;;;;;59.35;32.33;;;;;;;;;;5053434;28;20986;-69
2022/12/04 06:36:51;;;;;;;57.30;30.63;;;;;;;;;;5055439;28;20412;-69
2022/12/04 06:39:17;;;;;;;62.15;33.38;;;;;;;;;;5053459;28;20416;-68
2022/12/04 06:41:43;;;;;;;59.73;31.43;;;;;;;;;;5052915;28;20465;-76
2022/12/04 06:44:09;;;;;;;56.42;30.42;;;;;;;;;;5052837;28;20455;-76
2022/12/04 06:46:35;;;;;;;62.03;33.50;;;;;;;;;;5069782;28;20451;-76
2022/12/04 06:49:02;;;;;;;59.38;31.55;;;;;;;;;;5042211;28;20425;-75
2022/12/04 06:51:29;;;;;;;56.55;29.60;;;;;;;;;;5053075;28;20911;-76
2022/12/04 06:53:56;;;;;;;58.58;32.15;;;;;;;;;;5054281;28;20447;-75
2022/12/04 06:56:24;;;;;;;54.13;29.80;;;;;;;;;;5053532;28;20489;-75
2022/12/04 06:58:52;;;;;;;59.35;31.45;;;;;;;;;;5037055;28;20477;-76
2022/12/04 07:01:20;;;;;;;60.25;31.33;;;;;;;;;;5062627;28;20427;-75
2022/12/04 07:03:47;;;;;;;58.30;32.22;;;;;;;;;;5052413;28;20438;-76
2022/12/04 07:06:23;;;;;;;60.33;31.70;;;;;;;;;;5071350;28;20450;-75
2022/12/04 07:08:51;;;;;;;64.82;31.08;;;;;;;;;;5043772;28;20428;-76
2022/12/04 07:11:18;;;;;;;65.03;33.07;;;;;;;;;;5034044;28;20426;-76
2022/12/04 07:13:44;;;;;;;64.75;33.58;;;;;;;;;;5034820;28;20783;-76
2022/12/04 07:16:12;;;;;;;65.85;32.20;;;;;;;;;;5052967;28;20443;-76
2022/12/04 07:18:38;;;;;;;63.85;32.88;;;;;;;;;;5055174;28;20812;-77
2022/12/04 07:21:05;;;;;;;72.68;34.22;;;;;;;;;;5045550;28;20789;-77
2022/12/04 07:23:31;;;;;;;66.38;33.75;;;;;;;;;;5044740;28;20900;-76
2022/12/04 07:25:58;;;;;;;73.68;34.97;;;;;;;;;;5061976;28;20507;-77
2022/12/04 07:28:24;;;;;;;73.32;36.05;;;;;;;;;;5057393;28;20771;-76
2022/12/04 07:30:50;;;;;;;84.70;36.78;;;;;;;;;;5052702;28;20435;-78
2022/12/04 07:33:16;;;;;;;72.70;35.08;;;;;;;;;;5054012;28;20400;-79
2022/12/04 07:35:42;;;;;;;73.97;36.20;;;;;;;;;;5055902;28;20403;-78
2022/12/04 07:38:08;;;;;;;96.57;40.33;;;;;;;;;;5068665;28;20404;-80
2022/12/04 07:40:36;;;;;;;73.80;34.30;;;;;;;;;;5066388;28;20935;-79
2022/12/04 07:43:03;;;;;;;71.38;34.15;;;;;;;;;;5049295;28;20493;-78
2022/12/04 07:45:31;;;;;;;70.77;33.73;;;;;;;;;;5045063;28;20539;-79
2022/12/04 07:47:57;;;;;;;93.03;37.65;;;;;;;;;;5054724;28;20420;-78
2022/12/04 07:50:23;;;;;;;68.72;33.10;;;;;;;;;;5054027;28;20452;-78
2022/12/04 07:52:49;;;;;;;69.63;34.90;;;;;;;;;;5053405;28;20751;-78
2022/12/04 07:55:15;;;;;;;74.30;35.35;;;;;;;;;;5050782;28;20759;-78
2022/12/04 07:57:41;;;;;;;73.05;34.58;;;;;;;;;;5025986;28;20421;-78
2022/12/04 08:00:08;;;;;;;69.45;33.75;;;;;;;;;;5031920;28;20422;-80
2022/12/04 08:02:34;;;;;;;71.27;34.07;;;;;;;;;;5035294;28;20469;-79
2022/12/04 08:05:00;;;;;;;73.60;35.33;;;;;;;;;;5032854;28;20413;-79
2022/12/04 08:07:26;;;;;;;73.50;33.65;;;;;;;;;;5048380;28;20419;-80
2022/12/04 08:09:52;;;;;;;67.80;32.92;;;;;;;;;;5020979;28;20415;-79
2022/12/04 08:12:18;;;;;;;75.85;35.00;;;;;;;;;;5054021;28;20518;-79
2022/12/04 08:14:44;;;;;;;72.63;35.20;;;;;;;;;;5054368;28;20400;-79
2022/12/04 08:17:10;;;;;;;78.22;37.17;;;;;;;;;;5054060;28;20411;-79
2022/12/04 08:19:36;;;;;;;76.03;36.13;;;;;;;;;;5053530;28;20580;-79
2022/12/04 08:22:02;;;;;;;74.45;36.53;;;;;;;;;;5050824;28;20419;-79
2022/12/04 08:24:30;;;;;;;75.22;35.20;;;;;;;;;;5046895;28;20419;-78
2022/12/04 08:26:57;;;;;;;74.55;35.67;;;;;;;;;;5023738;28;20423;-77
2022/12/04 08:29:23;;;;;;;76.93;36.95;;;;;;;;;;5025943;28;20468;-77
2022/12/04 08:31:49;;;;;;;75.05;35.22;;;;;;;;;;5068620;28;20432;-77
2022/12/04 08:34:15;;;;;;;75.47;35.40;;;;;;;;;;5046794;28;20848;-77
2022/12/04 08:36:42;;;;;;;77.27;34.67;;;;;;;;;;5047143;28;20476;-76
2022/12/04 08:39:08;;;;;;;81.38;35.78;;;;;;;;;;5048948;28;20507;-77
2022/12/04 08:41:36;;;;;;;77.23;35.67;;;;;;;;;;5039962;28;20425;-77
2022/12/04 08:44:02;;;;;;;80.85;36.03;;;;;;;;;;5044101;28;20407;-77
2022/12/04 08:46:28;;;;;;;72.93;34.55;;;;;;;;;;5041530;28;20436;-77
2022/12/04 08:48:55;;;;;;;72.43;34.28;;;;;;;;;;5036020;28;20427;-78
2022/12/04 08:51:25;;;;;;;73.55;35.47;;;;;;;;;;5051506;28;20502;-78
2022/12/04 08:53:53;;;;;;;73.85;33.72;;;;;;;;;;5049921;28;20576;-78
2022/12/04 08:56:19;;;;;;;68.72;33.00;;;;;;;;;;5068908;28;20419;-80
2022/12/04 08:58:45;;;;;;;67.05;33.22;;;;;;;;;;5035863;28;21054;-79
2022/12/04 09:01:13;;;;;;;67.75;31.65;;;;;;;;;;5056024;28;20423;-80
2022/12/04 09:03:39;;;;;;;105.55;35.95;;;;;;;;;;5047479;28;20444;-80
2022/12/04 09:06:06;;;;;;;64.70;32.22;;;;;;;;;;5045719;28;20604;-80
2022/12/04 09:08:32;;;;;;;60.90;33.28;;;;;;;;;;5048474;28;20425;-81
2022/12/04 09:11:18;;;;;;;63.17;32.42;;;;;;;;;;5049088;28;20492;-80
2022/12/04 09:13:45;;;;;;;64.55;34.50;;;;;;;;;;5041740;28;20512;-81
2022/12/04 09:16:13;;;;;;;61.53;30.98;;;;;;;;;;5041933;28;20477;-83
2022/12/04 09:18:40;;;;;;;58.97;31.40;;;;;;;;;;5053430;28;20419;-83
2022/12/04 09:21:10;;;;;;;58.35;30.95;;;;;;;;;;5035084;28;20446;-81
2022/12/04 09:23:37;;;;;;;59.92;30.25;;;;;;;;;;5046061;28;20422;-81
2022/12/04 09:26:04;;;;;;;62.47;32.92;;;;;;;;;;5048989;28;20482;-81
2022/12/04 09:28:30;;;;;;;61.38;32.28;;;;;;;;;;5048976;28;20458;-80
2022/12/04 09:30:57;;;;;;;58.85;30.63;;;;;;;;;;5050469;28;20445;-80
2022/12/04 09:33:23;;;;;;;60.05;31.92;;;;;;;;;;5035705;28;20414;-80
2022/12/04 09:35:49;;;;;;;59.92;33.45;;;;;;;;;;5049613;28;20430;-79
2022/12/04 09:38:15;;;;;;;59.15;31.55;;;;;;;;;;5048536;28;20510;-80
2022/12/04 09:41:17;;;;;;;56.97;31.45;;;;;;;;;;5043418;28;20429;-80
2022/12/04 09:43:50;;;;;;;58.10;29.73;;;;;;;;;;4971930;28;20441;-80
2022/12/04 09:46:18;;;;;;;54.80;30.98;;;;;;;;;;5034919;28;20432;-78
2022/12/04 09:48:49;;;;;;;55.95;31.27;;;;;;;;;;5032337;28;20435;-78
2022/12/04 09:51:17;;;;;;;58.08;31.85;;;;;;;;;;5052243;28;20891;-79
2022/12/04 09:53:49;;;;;;;59.50;30.90;;;;;;;;;;5059679;28;20423;-78
2022/12/04 09:56:21;;;;;;;55.63;30.08;;;;;;;;;;5064170;28;20415;-78
2022/12/04 09:58:53;;;;;;;57.45;32.38;;;;;;;;;;5052744;28;21317;-78
2022/12/04 10:01:22;;;;;;;56.30;31.02;;;;;;;;;;5054730;28;20436;-78
2022/12/04 10:03:48;;;;;;;55.93;31.00;;;;;;;;;;5053331;28;20824;-78
2022/12/04 10:06:17;;;;;;;59.47;32.25;;;;;;;;;;5054831;28;20421;-78
2022/12/04 10:08:45;;;;;;;51.60;29.38;;;;;;;;;;5047360;28;20818;-78
2022/12/04 10:11:17;;;;;;;57.22;32.47;;;;;;;;;;5050573;28;20477;-78
2022/12/04 10:13:46;;;;;;;51.25;29.35;;;;;;;;;;5048287;28;20865;-79
2022/12/04 10:16:12;;;;;;;52.40;29.55;;;;;;;;;;5050476;28;20512;-79
2022/12/04 10:18:46;;;;;;;51.95;29.42;;;;;;;;;;5045762;28;20769;-79
2022/12/04 10:21:12;;;;;;;52.85;31.60;;;;;;;;;;5047570;28;20420;-81
2022/12/04 10:23:41;;;;;;;50.47;28.50;;;;;;;;;;5038274;28;20420;-79
2022/12/04 10:26:12;;;;;;;51.13;29.60;;;;;;;;;;5053819;28;20922;-79
2022/12/04 10:28:40;;;;;;;49.50;29.00;;;;;;;;;;5044639;28;20452;-79
2022/12/04 10:31:10;;;;;;;50.13;29.02;;;;;;;;;;5053237;28;20507;-79
2022/12/04 10:33:39;;;;;;;46.75;27.33;;;;;;;;;;5030450;28;20454;-79
2022/12/04 10:36:05;;;;;;;45.53;27.23;;;;;;;;;;5054389;28;20741;-80
2022/12/04 10:38:49;;;;;;;45.78;26.65;;;;;;;;;;5036928;28;20447;-79
2022/12/04 10:41:18;;;;;;;45.63;26.95;;;;;;;;;;5043283;28;20427;-78
2022/12/04 10:43:51;;;;;;;42.07;23.97;;;;;;;;;;5037266;28;20428;-79
2022/12/04 10:46:26;;;;;;;45.35;25.80;;;;;;;;;;5053873;28;20434;-78
2022/12/04 10:48:53;;;;;;;42.38;26.20;;;;;;;;;;5045778;28;20431;-78
2022/12/04 10:51:21;;;;;;;40.63;25.65;;;;;;;;;;5033152;28;20787;-79
2022/12/04 10:53:48;;;;;;;46.58;27.38;;;;;;;;;;5047219;28;20972;-79
2022/12/04 10:56:20;;;;;;;47.08;26.65;;;;;;;;;;5037165;28;20423;-79
2022/12/04 10:59:15;;;;;;;39.80;24.35;;;;;;;;;;5035328;28;20427;-80
2022/12/04 11:01:41;;;;;;;39.15;23.40;;;;;;;;;;5034233;28;20435;-79
2022/12/04 11:04:09;;;;;;;40.30;23.90;;;;;;;;;;5025067;28;20421;-79
2022/12/04 11:06:35;;;;;;;38.72;22.98;;;;;;;;;;5051000;28;20959;-80
2022/12/04 11:09:02;;;;;;;37.90;22.58;;;;;;;;;;5029881;28;20419;-80
2022/12/04 11:11:30;;;;;;;35.80;22.40;;;;;;;;;;5012159;28;20428;-79
2022/12/04 11:14:02;;;;;;;34.95;21.00;;;;;;;;;;5052852;28;20430;-79
2022/12/04 11:16:34;;;;;;;35.40;22.15;;;;;;;;;;5055211;28;20423;-80
2022/12/04 11:19:00;;;;;;;36.03;22.08;;;;;;;;;;5050288;28;20432;-79
2022/12/04 11:21:30;;;;;;;36.22;21.70;;;;;;;;;;5037356;28;20958;-80
2022/12/04 11:23:57;;;;;;;34.92;20.88;;;;;;;;;;5029009;28;20425;-80
2022/12/04 11:26:31;;;;;;;36.05;21.73;;;;;;;;;;5063182;28;20423;-80
2022/12/04 11:29:00;;;;;;;32.40;20.83;;;;;;;;;;5051301;28;20544;-79
2022/12/04 11:31:26;;;;;;;34.53;21.58;;;;;;;;;;5049837;28;20423;-80
2022/12/04 11:33:59;;;;;;;35.00;21.65;;;;;;;;;;5053545;28;20911;-80
2022/12/04 11:36:35;;;;;;;34.70;20.20;;;;;;;;;;5043398;28;20420;-79
2022/12/04 11:39:07;;;;;;;34.25;19.90;;;;;;;;;;5054603;28;20404;-80
2022/12/04 11:41:33;;;;;;;34.25;20.90;;;;;;;;;;5051485;28;20423;-81
2022/12/04 11:43:59;;;;;;;34.40;20.90;;;;;;;;;;5052099;28;20412;-79
2022/12/04 11:46:27;;;;;;;31.45;19.77;;;;;;;;;;5036807;28;20842;-80
2022/12/04 11:48:53;;;;;;;31.20;19.67;;;;;;;;;;5053821;28;20407;-80
2022/12/04 11:51:40;;;;;;;30.98;19.08;;;;;;;;;;5049262;28;20424;-80
2022/12/04 11:54:09;;;;;;;31.35;19.95;;;;;;;;;;5033478;28;20964;-80
2022/12/04 11:56:38;;;;;;;31.45;18.75;;;;;;;;;;5036013;28;20490;-80
2022/12/04 11:59:07;;;;;;;26.23;17.63;;;;;;;;;;5034204;28;20830;-80
2022/12/04 12:01:42;;;;;;;27.15;17.23;;;;;;;;;;5041362;28;20771;-80
2022/12/04 12:04:14;;;;;;;22.45;15.27;;;;;;;;;;5053817;28;20424;-80
2022/12/04 12:06:52;;;;;;;25.40;15.95;;;;;;;;;;5037944;28;21068;-80
2022/12/04 12:09:41;;;;;;;24.35;15.85;;;;;;;;;;5026622;28;20491;-80
2022/12/04 12:12:15;;;;;;;32.03;18.77;;;;;;;;;;5051061;28;20431;-80
2022/12/04 12:14:45;;;;;;;25.65;16.80;;;;;;;;;;5045514;28;20421;-79
2022/12/04 12:17:22;;;;;;;25.05;17.15;;;;;;;;;;5025768;28;20420;-81
2022/12/04 12:19:51;;;;;;;26.77;16.30;;;;;;;;;;5058772;28;20820;-80
2022/12/04 12:22:35;;;;;;;25.88;16.27;;;;;;;;;;5066049;28;20488;-81
2022/12/04 12:25:21;;;;;;;25.42;16.70;;;;;;;;;;5068359;28;20494;-80
2022/12/04 12:27:50;;;;;;;24.23;16.63;;;;;;;;;;5047980;28;20442;-80
2022/12/04 12:30:18;;;;;;;26.52;16.25;;;;;;;;;;5051155;28;20494;-81
2022/12/04 12:32:44;;;;;;;25.80;16.00;;;;;;;;;;5055845;28;21552;-79
2022/12/04 12:35:22;;;;;;;24.67;16.42;;;;;;;;;;5069444;28;20419;-79
2022/12/04 12:37:52;;;;;;;25.05;14.95;;;;;;;;;;5021397;28;20927;-79
2022/12/04 12:40:39;;;;;;;26.05;17.35;;;;;;;;;;5042249;28;20430;-79
2022/12/04 12:43:23;;;;;;;28.38;16.38;;;;;;;;;;5042773;28;20458;-78
2022/12/04 12:45:56;;;;;;;23.55;16.00;;;;;;;;;;5049185;28;20421;-78
2022/12/04 12:48:31;;;;;;;24.48;15.82;;;;;;;;;;5049039;28;20407;-79
2022/12/04 12:51:15;;;;;;;22.65;14.68;;;;;;;;;;5044446;28;20431;-79
2022/12/04 12:53:46;;;;;;;24.10;16.08;;;;;;;;;;5023813;28;20481;-78
2022/12/04 12:56:13;;;;;;;27.25;16.38;;;;;;;;;;5029296;28;20420;-78
2022/12/04 12:58:42;;;;;;;24.45;14.82;;;;;;;;;;5033245;28;20505;-78
2022/12/04 13:01:24;;;;;;;28.35;18.13;;;;;;;;;;5071669;28;20438;-78
2022/12/04 13:03:54;;;;;;;28.10;19.33;;;;;;;;;;5076328;28;20423;-80
2022/12/04 13:06:24;;;;;;;26.20;17.10;;;;;;;;;;5059133;28;20748;-79
2022/12/04 13:09:17;;;;;;;26.70;16.70;;;;;;;;;;5051619;28;20467;-79
2022/12/04 13:11:46;;;;;;;26.35;16.13;;;;;;;;;;5053438;28;20451;-78
2022/12/04 13:14:12;;;;;;;27.63;17.20;;;;;;;;;;5076054;28;20464;-79
2022/12/04 13:17:02;;;;;;;26.90;16.70;;;;;;;;;;5058934;28;20429;-79
2022/12/04 13:19:30;;;;;;;23.20;16.48;;;;;;;;;;5057714;28;20771;-79
2022/12/04 13:21:59;;;;;;;26.17;16.58;;;;;;;;;;5058000;28;20400;-79
2022/12/04 13:24:44;;;;;;;27.00;16.20;;;2.70;99.90;;;;;;5041108;28;20400;-79
2022/12/04 13:27:19;;;;;;;27.75;17.50;;;;;;;;;;5056464;28;20747;-82
2022/12/04 13:29:45;;;;;;;29.92;17.38;;;;;;;;;;5055495;28;20430;-79
2022/12/04 13:32:17;;;;;;;28.58;18.20;;;;;;;;;;5056937;28;20513;-78
2022/12/04 13:34:52;;;;;;;29.38;17.25;;;;;;;;;;5040709;28;20956;-78
2022/12/04 13:37:27;;;;;;;28.13;17.25;;;;;;;;;;5040997;28;20452;-79
2022/12/04 13:40:19;;;;;;;28.20;18.17;;;;;;;;;;5056431;28;20501;-77
2022/12/04 13:42:46;;;;;;;32.55;19.33;;;;;;;;;;5055509;28;20419;-77
2022/12/04 13:45:22;;;;;;;30.80;19.92;;;;;;;;;;5057329;28;20411;-80
2022/12/04 13:47:55;;;;;;;33.20;19.67;;;;;;;;;;5056725;28;20732;-79
2022/12/04 13:50:21;;;;;;;28.45;17.60;;;;;;;;;;5056680;28;20424;-78
2022/12/04 13:52:48;;;;;;;31.63;19.05;;;;;;;;;;5020232;28;20777;-78
2022/12/04 13:55:33;;;;;;;32.80;19.97;;;;;;;;;;5030788;28;20418;-78
2022/12/04 13:58:01;;;;;;;32.72;19.60;;;;;;;;;;5037403;28;20425;-79
2022/12/04 14:00:34;;;;;;;32.53;19.38;;;;;;;;;;5055984;28;20455;-78
2022/12/04 14:03:18;;;;;;;38.05;22.92;;;;;;;;;;5039755;28;20976;-79
2022/12/04 14:05:44;;;;;;;35.90;20.88;;;;;;;;;;5053919;28;20737;-78
2022/12/04 14:08:19;;;;;;;34.97;21.10;;;;;;;;;;5056256;28;20411;-79
2022/12/04 14:10:56;;;;;;;34.43;21.00;;;;;;;;;;5054438;28;20487;-79
2022/12/04 14:13:24;;;;;;;37.13;21.23;;;;;;;;;;5056363;28;20482;-78
2022/12/04 14:16:02;;;;;;;33.92;19.55;;;;;;;;;;5055628;28;20415;-79
2022/12/04 14:18:29;;;;;;;36.65;21.88;;;;;;;;;;5054947;28;20419;-79
2022/12/04 14:21:00;;;;;;;34.30;21.40;;;;;;;;;;5056079;28;20411;-78
2022/12/04 14:23:32;;;;;;;38.92;21.60;;;;;;;;;;5055415;28;20411;-79
2022/12/04 14:25:59;;;;;;;36.15;21.90;;;;;;;;;;5055537;28;20930;-79
2022/12/04 14:28:31;;;;;;;33.63;20.07;;;;;;;;;;5038573;28;20433;-78
2022/12/04 14:31:13;;;;;;;35.50;21.05;;;;;;;;;;5055770;28;20424;-78
2022/12/04 14:33:44;;;;;;;33.40;21.67;;;;;;;;;;5054262;28;20416;-78
2022/12/04 14:36:36;;;;;;;35.33;21.35;;;;;;;;;;5038481;28;20408;-78
2022/12/04 14:39:35;;;;;;;37.20;23.23;;;2.70;99.90;;;;;;5042819;28;20423;-77